Kezdőlap
METAR-TAF:

METAR-TAF

Repülőterek :

Vancouver, Brit Columbia, Kanada

földrajzi szélesség: 49-11N, földrajzi hosszúság: 123-10W, magasság: 3 m

Jelenlegi meteorológiai megfigyelések

A jelentés 38 perccel ezelõtt készült, 16:00 UTC
Északnyugati szél 2 kt
Hőmérséklet 9°C
Páratartalom 76%
Légköri nyomás 1019 hPa
Látótávolság: 48.3 km
Derült ég

METAR: CYVR 191600Z 32002KT 30SM SKC 09/05 A3010 RMK SLP193

Idő: 09:38 (16:38 UTC)

Előrejelzés

A jelentés 2 órával és 0 perccel ezelõtt készült, 14:38 UTC
Az előrejelzés 19-én 15 óra UTC és 20-én 18 óra UTC között érvényes
Kelet-északkeleti szél 5 kt
Látótávolság: 10 km
Derült ég
19-én 18 óra UTC és 19-én 20 óra UTC között fokozatosan kialakuló
Nyugati szél 8 kt
20-én 06 óra UTC és 20-én 08 óra UTC között fokozatosan kialakuló
Kelet-északkeleti szél 5 kt

TAF: CYVR 191438Z 1915/2018 07005KT P6SM SKC BECMG 1918/1920 26008KT BECMG 2006/2008 06005KT RMK NXT FCST BY 191800Z

Meteorológiai megfigyelések és előrejelzések több, mint 4000 repülőtéren (METAR és TAF jelentéseket).

A térképen piros és sárga pontok jelzik az elérhető meteorológiai állomásokat.

Mozgassa az egeret a pont fölött, hogy megjelenjen az állomás neve.

Azután kattintson az időjárási megfigyelések és előrejelzések megtekintéséhez.

A térkép megváltoztatása: kattintson a fekete keresztel jelölt zöld gombra ráközelítéshez, a vonallal jelölt zöld gombra távolításhoz, vagy a zöld nyilakra a szomszédos térképek eléréséhez.


METAR-TAF: